createdAt,value
2023-03-17T00:02:20.651Z,39.49
2023-03-17T00:04:46.758Z,38.63
2023-03-17T00:07:12.870Z,39.00
2023-03-17T00:09:38.958Z,38.83
2023-03-17T00:12:05.049Z,38.54
2023-03-17T00:14:31.152Z,38.73
2023-03-17T00:16:57.256Z,39.36
2023-03-17T00:19:23.323Z,39.08
2023-03-17T00:21:49.436Z,38.99
2023-03-17T00:24:15.507Z,38.28
2023-03-17T00:26:41.583Z,38.12
2023-03-17T00:29:07.652Z,39.57
2023-03-17T00:31:33.778Z,38.80
2023-03-17T00:33:59.902Z,39.96
2023-03-17T00:36:25.989Z,39.36
2023-03-17T00:38:52.096Z,39.30
2023-03-17T00:41:18.200Z,38.20
2023-03-17T00:43:44.304Z,38.09
2023-03-17T00:46:10.392Z,38.89
2023-03-17T00:48:36.513Z,37.91
2023-03-17T00:51:02.612Z,38.64
2023-03-17T00:53:28.687Z,37.69
2023-03-17T00:55:54.756Z,38.28
2023-03-17T00:58:20.854Z,38.54
2023-03-17T01:00:47.018Z,40.09
2023-03-17T01:03:13.158Z,40.17
2023-03-17T01:05:39.259Z,39.82
2023-03-17T01:08:05.465Z,40.04
2023-03-17T01:10:31.998Z,40.76
2023-03-17T01:12:58.358Z,40.70
2023-03-17T01:15:24.468Z,40.66
2023-03-17T01:17:50.585Z,41.33
2023-03-17T01:20:16.722Z,40.91
2023-03-17T01:22:42.805Z,40.59
2023-03-17T01:25:08.896Z,39.95
2023-03-17T01:27:35.033Z,39.04
2023-03-17T01:30:01.103Z,39.19
2023-03-17T01:32:27.224Z,39.64
2023-03-17T01:34:53.339Z,40.71
2023-03-17T01:37:19.433Z,40.49
2023-03-17T01:39:45.542Z,40.53
2023-03-17T01:42:11.668Z,39.77
2023-03-17T01:44:37.752Z,39.45
2023-03-17T01:47:03.831Z,38.99
2023-03-17T01:49:29.950Z,38.38
2023-03-17T01:51:56.126Z,38.47
2023-03-17T01:54:22.204Z,39.23
2023-03-17T01:56:48.295Z,39.68
2023-03-17T01:59:14.392Z,39.31
2023-03-17T02:01:40.477Z,38.72
2023-03-17T02:04:06.613Z,38.35
2023-03-17T02:06:32.746Z,38.54
2023-03-17T02:08:58.836Z,39.83
2023-03-17T02:11:24.933Z,38.60
2023-03-17T02:13:51.016Z,39.52
2023-03-17T02:16:17.144Z,39.91
2023-03-17T02:18:43.260Z,39.55
2023-03-17T02:21:09.355Z,39.33
2023-03-17T02:23:35.448Z,40.29
2023-03-17T02:26:01.560Z,41.29
2023-03-17T02:28:27.672Z,40.40
2023-03-17T02:30:53.820Z,41.03
2023-03-17T02:33:19.938Z,42.13
2023-03-17T02:35:46.079Z,41.78
2023-03-17T02:38:12.235Z,41.65
2023-03-17T02:40:38.324Z,40.66
2023-03-17T02:43:04.446Z,40.99
2023-03-17T02:45:30.545Z,39.79
2023-03-17T02:47:56.616Z,40.24
2023-03-17T02:50:22.704Z,41.59
2023-03-17T02:52:48.811Z,41.31
2023-03-17T02:55:14.904Z,42.09
2023-03-17T02:57:41.001Z,40.82
2023-03-17T03:00:07.121Z,40.41
2023-03-17T03:02:33.261Z,41.15
2023-03-17T03:04:59.387Z,40.92
2023-03-17T03:07:25.496Z,40.45
2023-03-17T03:09:51.571Z,40.53
2023-03-17T03:12:17.655Z,41.15
2023-03-17T03:14:43.740Z,41.52
2023-03-17T03:17:09.840Z,40.77
2023-03-17T03:19:35.921Z,40.47
2023-03-17T03:22:02.014Z,40.31
2023-03-17T03:24:28.112Z,39.77
2023-03-17T03:26:54.217Z,39.75
2023-03-17T03:29:20.387Z,39.84
2023-03-17T03:31:46.464Z,40.07
2023-03-17T03:34:12.574Z,39.38
2023-03-17T03:36:38.673Z,39.42
2023-03-17T03:39:04.787Z,39.60
2023-03-17T03:41:30.872Z,38.84
2023-03-17T03:43:56.993Z,38.32
2023-03-17T03:46:23.154Z,37.90
2023-03-17T03:48:49.286Z,38.29
2023-03-17T03:51:15.364Z,40.00
2023-03-17T03:53:41.468Z,38.41
2023-03-17T03:56:07.567Z,39.43
2023-03-17T03:58:33.670Z,38.85
2023-03-17T04:00:59.756Z,38.30
2023-03-17T04:03:25.846Z,37.85
2023-03-17T04:05:51.959Z,37.81
2023-03-17T04:08:18.053Z,37.75
2023-03-17T04:10:44.129Z,37.18
2023-03-17T04:13:10.243Z,36.87
2023-03-17T04:15:36.325Z,37.26
2023-03-17T04:18:02.424Z,37.96
2023-03-17T04:20:28.927Z,38.64
2023-03-17T04:22:55.159Z,38.06
2023-03-17T04:25:21.245Z,37.55
2023-03-17T04:27:47.328Z,39.87
2023-03-17T04:30:13.420Z,39.36
2023-03-17T04:32:39.538Z,39.06
2023-03-17T04:35:05.640Z,38.55
2023-03-17T04:37:34.456Z,39.60
2023-03-17T04:40:00.706Z,38.75
2023-03-17T04:42:26.788Z,38.60
2023-03-17T04:44:52.870Z,38.57
2023-03-17T04:47:18.969Z,40.19
2023-03-17T04:49:45.051Z,39.41
2023-03-17T04:52:11.132Z,39.34
2023-03-17T04:54:37.229Z,40.47
2023-03-17T04:57:03.341Z,40.21
2023-03-17T04:59:29.427Z,39.44
2023-03-17T05:01:55.556Z,40.01
2023-03-17T05:04:31.240Z,39.56
2023-03-17T05:06:57.903Z,39.89
2023-03-17T05:09:24.026Z,40.37
2023-03-17T05:11:50.138Z,40.07
2023-03-17T05:14:16.229Z,39.87
2023-03-17T05:16:42.367Z,39.74
2023-03-17T05:19:08.482Z,39.82
2023-03-17T05:21:34.568Z,39.74
2023-03-17T05:24:00.661Z,38.57
2023-03-17T05:26:26.751Z,38.59
2023-03-17T05:28:52.823Z,37.98
2023-03-17T05:31:18.973Z,38.16
2023-03-17T05:33:45.106Z,39.28
2023-03-17T05:36:11.183Z,37.77
2023-03-17T05:38:37.272Z,37.58
2023-03-17T05:41:03.387Z,38.30
2023-03-17T05:43:29.485Z,37.50
2023-03-17T05:45:55.613Z,37.64
2023-03-17T05:48:21.704Z,37.59
2023-03-17T05:50:47.824Z,39.26
2023-03-17T05:53:13.924Z,38.60
2023-03-17T05:55:40.024Z,37.85
2023-03-17T05:58:06.118Z,37.91
2023-03-17T06:00:32.564Z,37.52
2023-03-17T06:02:58.893Z,37.66
2023-03-17T06:05:24.990Z,36.86
2023-03-17T06:07:55.760Z,37.93
2023-03-17T06:10:22.546Z,38.43
2023-03-17T06:12:48.636Z,38.23
2023-03-17T06:15:14.763Z,37.77
2023-03-17T06:17:40.869Z,37.94
2023-03-17T06:20:06.964Z,37.75
2023-03-17T06:22:33.044Z,38.16
2023-03-17T06:24:59.119Z,37.46
2023-03-17T06:27:25.222Z,38.39
2023-03-17T06:29:51.315Z,38.24
2023-03-17T06:32:20.894Z,37.45
2023-03-17T06:34:47.277Z,37.55
2023-03-17T06:37:13.369Z,37.23
2023-03-17T06:39:39.451Z,37.11
2023-03-17T06:42:06.372Z,36.84
2023-03-17T06:44:32.560Z,36.77
2023-03-17T06:46:58.632Z,36.70
2023-03-17T06:49:24.701Z,36.29
2023-03-17T06:51:50.778Z,37.99
2023-03-17T06:54:16.864Z,37.27
2023-03-17T06:56:42.954Z,37.22
2023-03-17T06:59:09.039Z,37.62
2023-03-17T07:01:35.186Z,37.43
2023-03-17T07:04:01.316Z,36.35
2023-03-17T07:06:27.385Z,36.75
2023-03-17T07:08:53.469Z,37.70
2023-03-17T07:11:19.556Z,35.58
2023-03-17T07:13:45.664Z,35.15
2023-03-17T07:16:11.817Z,34.27
2023-03-17T07:18:38.002Z,35.55
2023-03-17T07:21:04.131Z,34.94
2023-03-17T07:23:30.250Z,33.94
2023-03-17T07:25:56.371Z,35.15
2023-03-17T07:28:22.456Z,34.62
2023-03-17T07:30:48.555Z,34.02
2023-03-17T07:33:14.687Z,32.36
2023-03-17T07:35:40.908Z,31.83
2023-03-17T07:38:07.077Z,31.13
2023-03-17T07:40:35.313Z,30.86
2023-03-17T07:43:01.608Z,31.97
2023-03-17T07:45:27.865Z,30.13
2023-03-17T07:47:54.068Z,29.46
2023-03-17T07:50:20.188Z,27.88
2023-03-17T07:52:46.311Z,28.52
2023-03-17T07:55:12.408Z,28.79
2023-03-17T07:57:38.535Z,29.38
2023-03-17T08:00:04.651Z,29.73
2023-03-17T08:02:30.796Z,30.04
2023-03-17T08:04:56.906Z,29.65
2023-03-17T08:07:23.029Z,29.67
2023-03-17T08:09:49.130Z,29.49
2023-03-17T08:12:15.238Z,29.97
2023-03-17T08:14:41.370Z,29.41
2023-03-17T08:17:07.553Z,29.48
2023-03-17T08:19:33.748Z,28.41
2023-03-17T08:21:59.900Z,28.62
2023-03-17T08:24:26.014Z,28.90
2023-03-17T08:26:52.113Z,28.90
2023-03-17T08:29:18.188Z,27.67
2023-03-17T08:31:46.548Z,29.86
2023-03-17T08:34:12.847Z,26.88
2023-03-17T08:36:38.928Z,27.67
2023-03-17T08:39:05.045Z,30.72
2023-03-17T08:41:31.162Z,30.01
2023-03-17T08:43:57.258Z,28.58
2023-03-17T08:46:23.412Z,28.70
2023-03-17T08:48:49.540Z,28.40
2023-03-17T08:51:18.180Z,28.65
2023-03-17T08:53:45.077Z,29.07
2023-03-17T08:56:11.171Z,28.63
2023-03-17T08:58:37.262Z,26.68
2023-03-17T09:01:03.425Z,25.71
2023-03-17T09:03:29.572Z,24.88
2023-03-17T09:05:55.655Z,24.90
2023-03-17T09:08:21.767Z,24.88
2023-03-17T09:10:47.877Z,24.25
2023-03-17T09:13:13.996Z,24.21
2023-03-17T09:15:40.332Z,24.06
2023-03-17T09:18:06.499Z,24.25
2023-03-17T09:20:33.269Z,25.98
2023-03-17T09:22:59.632Z,27.03
2023-03-17T09:25:25.726Z,25.34
2023-03-17T09:27:51.810Z,27.39
2023-03-17T09:30:17.942Z,26.48
2023-03-17T09:32:44.082Z,25.85
2023-03-17T09:35:10.179Z,25.61
2023-03-17T09:37:36.276Z,26.26
2023-03-17T09:40:02.367Z,25.58
2023-03-17T09:42:28.440Z,25.46
2023-03-17T09:44:54.534Z,25.43
2023-03-17T09:47:20.631Z,23.60
2023-03-17T09:49:46.758Z,24.02
2023-03-17T09:52:12.862Z,23.23
2023-03-17T09:54:38.947Z,24.80
2023-03-17T09:57:05.045Z,24.48
2023-03-17T09:59:31.127Z,24.62
2023-03-17T10:01:57.265Z,26.89
2023-03-17T10:04:23.395Z,24.48
2023-03-17T10:06:49.498Z,22.49
2023-03-17T10:09:15.617Z,22.72
2023-03-17T10:11:41.688Z,24.55
2023-03-17T10:14:07.787Z,24.08
2023-03-17T10:16:33.925Z,25.31
2023-03-17T10:19:00.276Z,24.31
2023-03-17T10:21:26.374Z,25.81
2023-03-17T10:23:52.467Z,27.10
2023-03-17T10:26:18.564Z,25.76
2023-03-17T10:28:44.688Z,26.02
2023-03-17T10:31:10.822Z,26.34
2023-03-17T10:33:36.924Z,22.71
2023-03-17T10:36:03.099Z,20.67
2023-03-17T10:38:29.204Z,20.68
2023-03-17T10:40:55.304Z,23.05
2023-03-17T10:43:21.558Z,20.97
2023-03-17T10:45:47.661Z,19.84
2023-03-17T10:48:13.784Z,20.62
2023-03-17T10:50:39.886Z,21.02
2023-03-17T10:53:05.981Z,19.39
2023-03-17T10:55:32.061Z,21.20
2023-03-17T10:57:58.174Z,19.79
2023-03-17T11:00:24.257Z,17.91
2023-03-17T11:02:50.337Z,17.75
2023-03-17T11:05:16.424Z,18.03
2023-03-17T11:07:42.503Z,18.02
2023-03-17T11:10:08.606Z,18.08
2023-03-17T11:12:34.715Z,19.28
2023-03-17T11:15:00.807Z,19.03
2023-03-17T11:17:26.912Z,19.07
2023-03-17T11:19:53.034Z,19.93
2023-03-17T11:22:19.110Z,19.38
2023-03-17T11:24:45.216Z,20.61
2023-03-17T11:27:11.311Z,21.72
2023-03-17T11:29:37.404Z,19.54
2023-03-17T11:32:03.559Z,20.37
2023-03-17T11:34:29.683Z,19.84
2023-03-17T11:36:57.825Z,20.41
2023-03-17T11:39:24.396Z,19.76
2023-03-17T11:41:50.492Z,20.68
2023-03-17T11:44:16.613Z,19.62
2023-03-17T11:46:42.712Z,20.80
2023-03-17T11:49:08.802Z,21.23
2023-03-17T11:51:34.900Z,22.24
2023-03-17T11:54:00.992Z,21.44
2023-03-17T11:56:27.090Z,20.86
2023-03-17T11:58:53.214Z,19.21
2023-03-17T12:01:19.381Z,19.10
2023-03-17T12:03:45.606Z,18.62
2023-03-17T12:06:11.895Z,17.06
2023-03-17T12:08:38.021Z,19.31
2023-03-17T12:11:04.124Z,21.70
2023-03-17T12:13:30.216Z,20.85
2023-03-17T12:15:56.370Z,20.55
2023-03-17T12:18:22.548Z,20.61
2023-03-17T12:20:48.641Z,20.29
2023-03-17T12:23:14.730Z,19.85
2023-03-17T12:25:40.852Z,19.76
2023-03-17T12:28:06.969Z,19.24
2023-03-17T12:30:33.302Z,17.91
2023-03-17T12:32:59.584Z,18.32
2023-03-17T12:35:25.685Z,19.39
2023-03-17T12:37:51.766Z,18.81
2023-03-17T12:40:17.874Z,19.99
2023-03-17T12:42:43.953Z,19.18
2023-03-17T12:45:10.035Z,18.98
2023-03-17T12:47:36.131Z,18.41
2023-03-17T12:50:02.240Z,17.92
2023-03-17T12:52:28.427Z,17.24
2023-03-17T12:54:54.518Z,17.85
2023-03-17T12:57:20.613Z,19.62
2023-03-17T12:59:46.711Z,19.34
2023-03-17T13:02:12.800Z,20.02
2023-03-17T13:04:38.884Z,19.18
2023-03-17T13:07:05.007Z,18.44
2023-03-17T13:09:31.819Z,18.43
2023-03-17T13:11:58.076Z,20.24
2023-03-17T13:14:24.184Z,20.19
2023-03-17T13:16:50.291Z,19.99
2023-03-17T13:19:16.409Z,19.70
2023-03-17T13:21:42.507Z,21.34
2023-03-17T13:24:08.572Z,21.75
2023-03-17T13:26:34.652Z,21.65
2023-03-17T13:29:00.733Z,21.97
2023-03-17T13:31:26.876Z,21.44
2023-03-17T13:33:52.986Z,21.42
2023-03-17T13:36:19.075Z,20.88
2023-03-17T13:38:46.780Z,20.45
2023-03-17T13:41:12.996Z,23.49
2023-03-17T13:43:39.084Z,23.68
2023-03-17T13:46:05.257Z,22.38
2023-03-17T13:48:31.350Z,22.37
2023-03-17T13:50:57.490Z,24.25
2023-03-17T13:53:23.571Z,25.17
2023-03-17T13:55:49.803Z,25.71
2023-03-17T13:58:15.992Z,27.53
2023-03-17T14:00:42.117Z,27.44
2023-03-17T14:03:08.217Z,26.91
2023-03-17T14:05:34.298Z,26.26
2023-03-17T14:08:00.418Z,26.14
2023-03-17T14:10:26.512Z,26.51
2023-03-17T14:12:52.624Z,26.95
2023-03-17T14:15:18.731Z,26.17
2023-03-17T14:17:44.887Z,26.03
2023-03-17T14:20:11.020Z,26.80
2023-03-17T14:22:37.130Z,26.54
2023-03-17T14:25:03.224Z,27.28
2023-03-17T14:27:29.306Z,26.75
2023-03-17T14:29:56.460Z,28.28
2023-03-17T14:32:22.559Z,29.04
2023-03-17T14:34:48.648Z,27.68
2023-03-17T14:37:14.752Z,27.95
2023-03-17T14:39:40.856Z,28.30
2023-03-17T14:42:06.950Z,28.22
2023-03-17T14:44:33.059Z,27.27
2023-03-17T14:46:59.141Z,27.04
2023-03-17T14:49:25.219Z,26.80
2023-03-17T14:51:51.307Z,27.19
2023-03-17T14:54:17.400Z,27.45
2023-03-17T14:56:43.504Z,27.18
2023-03-17T14:59:09.619Z,27.66
2023-03-17T15:01:35.759Z,27.98
2023-03-17T15:04:02.595Z,27.13
2023-03-17T15:06:28.686Z,26.56
2023-03-17T15:08:54.849Z,27.86
2023-03-17T15:11:20.951Z,28.11
2023-03-17T15:13:47.043Z,29.59
2023-03-17T15:16:13.163Z,27.92
2023-03-17T15:18:39.263Z,26.10
2023-03-17T15:21:05.396Z,27.03
2023-03-17T15:23:31.482Z,25.46
2023-03-17T15:25:57.585Z,27.21
2023-03-17T15:28:23.671Z,28.19
2023-03-17T15:30:50.267Z,29.66
2023-03-17T15:33:16.695Z,30.79
2023-03-17T15:35:42.865Z,28.84
2023-03-17T15:38:08.945Z,28.84
2023-03-17T15:40:35.007Z,29.94
2023-03-17T15:43:01.122Z,25.98
2023-03-17T15:45:27.232Z,28.22
2023-03-17T15:47:53.324Z,31.18
2023-03-17T15:50:19.413Z,30.29
2023-03-17T15:52:45.508Z,30.08
2023-03-17T15:55:11.608Z,28.69
2023-03-17T15:57:37.673Z,29.44
2023-03-17T16:00:03.756Z,28.80
2023-03-17T16:02:29.857Z,28.39
2023-03-17T16:04:55.972Z,28.29
2023-03-17T16:07:22.055Z,28.21
2023-03-17T16:09:48.132Z,29.76
2023-03-17T16:12:14.239Z,29.42
2023-03-17T16:14:40.316Z,28.75
2023-03-17T16:17:06.399Z,29.52
2023-03-17T16:19:32.467Z,29.92
2023-03-17T16:21:58.559Z,31.91
2023-03-17T16:24:24.640Z,31.31
2023-03-17T16:26:50.712Z,32.89
2023-03-17T16:29:16.818Z,33.42
2023-03-17T16:31:42.933Z,32.40
2023-03-17T16:34:09.044Z,33.45
2023-03-17T16:36:35.142Z,32.53
2023-03-17T16:39:01.234Z,32.04
2023-03-17T16:41:27.523Z,33.60
2023-03-17T16:43:53.863Z,34.78
2023-03-17T16:46:19.978Z,33.79
2023-03-17T16:48:46.092Z,34.12
2023-03-17T16:51:12.196Z,34.55
2023-03-17T16:53:38.269Z,34.17
2023-03-17T16:56:04.359Z,34.88
2023-03-17T16:58:30.443Z,34.08
2023-03-17T17:00:56.528Z,34.11
2023-03-17T17:03:22.613Z,34.30
2023-03-17T17:05:48.792Z,34.66
2023-03-17T17:08:14.901Z,35.18
2023-03-17T17:10:41.003Z,36.26
2023-03-17T17:13:07.743Z,34.99
2023-03-17T17:15:33.964Z,34.78
2023-03-17T17:18:00.048Z,34.48
2023-03-17T17:20:26.181Z,33.36
2023-03-17T17:22:52.277Z,32.58
2023-03-17T17:25:18.352Z,33.81
2023-03-17T17:27:44.439Z,32.70
2023-03-17T17:30:10.563Z,33.27
2023-03-17T17:32:36.666Z,33.96
2023-03-17T17:35:02.788Z,34.17
2023-03-17T17:37:28.878Z,33.67
2023-03-17T17:39:54.984Z,34.23
2023-03-17T17:42:21.097Z,36.15
2023-03-17T17:44:47.210Z,35.87
2023-03-17T17:47:13.325Z,35.30
2023-03-17T17:49:39.412Z,34.53
2023-03-17T17:52:05.501Z,34.56
2023-03-17T17:54:31.605Z,36.37
2023-03-17T17:56:57.703Z,35.43
2023-03-17T17:59:23.808Z,35.57
2023-03-17T18:01:49.904Z,35.29
2023-03-17T18:04:16.071Z,36.28
2023-03-17T18:06:42.194Z,35.84
2023-03-17T18:09:08.304Z,35.61
2023-03-17T18:11:34.387Z,35.44
2023-03-17T18:14:00.493Z,35.75
2023-03-17T18:16:26.644Z,35.40
2023-03-17T18:18:52.765Z,36.67
2023-03-17T18:21:18.868Z,37.71
2023-03-17T18:23:44.959Z,37.53
2023-03-17T18:26:11.047Z,35.55
2023-03-17T18:28:37.145Z,35.55
2023-03-17T18:31:03.236Z,35.40
2023-03-17T18:33:29.313Z,34.18
2023-03-17T18:35:55.586Z,34.01
2023-03-17T18:38:21.789Z,33.95
2023-03-17T18:40:47.893Z,34.00
2023-03-17T18:43:13.990Z,33.14
2023-03-17T18:45:40.137Z,33.43
2023-03-17T18:48:06.252Z,34.01
2023-03-17T18:50:32.604Z,35.65
2023-03-17T18:52:58.883Z,35.45
2023-03-17T18:55:24.944Z,34.32
2023-03-17T18:57:51.027Z,34.28
2023-03-17T19:00:17.108Z,34.10
2023-03-17T19:02:43.183Z,34.51
2023-03-17T19:05:09.269Z,34.14
2023-03-17T19:07:35.420Z,34.87
2023-03-17T19:10:01.506Z,34.61
2023-03-17T19:12:27.602Z,34.65
2023-03-17T19:14:53.746Z,33.42
2023-03-17T19:17:19.850Z,33.77
2023-03-17T19:19:45.923Z,33.00
2023-03-17T19:22:12.028Z,34.09
2023-03-17T19:24:38.152Z,34.60
2023-03-17T19:27:04.229Z,34.29
2023-03-17T19:29:30.381Z,34.41
2023-03-17T19:31:56.499Z,33.98
2023-03-17T19:34:22.607Z,35.03
2023-03-17T19:36:48.823Z,34.45
2023-03-17T19:39:14.932Z,34.11
2023-03-17T19:41:41.053Z,33.67
2023-03-17T19:44:07.131Z,34.51
2023-03-17T19:46:33.222Z,34.06
2023-03-17T19:48:59.337Z,34.50
2023-03-17T19:51:25.441Z,34.99
2023-03-17T19:53:51.556Z,35.04
2023-03-17T19:56:17.657Z,35.09
2023-03-17T19:58:43.761Z,35.54
2023-03-17T20:01:09.902Z,36.06
2023-03-17T20:03:36.027Z,34.81
2023-03-17T20:06:02.135Z,34.56
2023-03-17T20:08:28.228Z,34.29
2023-03-17T20:10:54.351Z,35.48
2023-03-17T20:13:20.471Z,36.44
2023-03-17T20:15:46.631Z,36.63
2023-03-17T20:18:12.770Z,38.17
2023-03-17T20:20:38.884Z,38.55
2023-03-17T20:23:04.958Z,38.82
2023-03-17T20:25:31.031Z,37.49
2023-03-17T20:27:57.122Z,36.82
2023-03-17T20:30:23.227Z,36.81
2023-03-17T20:32:49.450Z,35.71
2023-03-17T20:35:15.555Z,35.86
2023-03-17T20:37:41.674Z,34.93
2023-03-17T20:40:07.765Z,34.92
2023-03-17T20:42:33.871Z,34.56
2023-03-17T20:44:59.954Z,35.37
2023-03-17T20:47:26.070Z,36.28
2023-03-17T20:49:52.164Z,37.33
2023-03-17T20:52:18.268Z,36.21
2023-03-17T20:54:44.390Z,35.45
2023-03-17T20:57:10.484Z,36.41
2023-03-17T20:59:36.562Z,35.41
2023-03-17T21:02:02.658Z,35.11
2023-03-17T21:04:28.747Z,35.69
2023-03-17T21:06:54.829Z,35.29
2023-03-17T21:09:20.933Z,35.69
2023-03-17T21:11:47.026Z,35.72
2023-03-17T21:14:13.137Z,36.13
2023-03-17T21:16:39.282Z,35.00
2023-03-17T21:19:06.459Z,35.86
2023-03-17T21:21:34.160Z,36.48
2023-03-17T21:24:00.257Z,36.40
2023-03-17T21:26:26.355Z,35.90
2023-03-17T21:28:52.456Z,35.65
2023-03-17T21:31:18.610Z,34.79
2023-03-17T21:33:44.771Z,35.74
2023-03-17T21:36:10.936Z,35.84
2023-03-17T21:38:37.056Z,36.33
2023-03-17T21:41:03.145Z,38.20
2023-03-17T21:43:29.242Z,38.70
2023-03-17T21:45:55.353Z,38.12
2023-03-17T21:48:21.479Z,37.30
2023-03-17T21:50:47.586Z,37.96
2023-03-17T21:53:13.698Z,39.22
2023-03-17T21:55:39.800Z,38.77
2023-03-17T21:58:05.896Z,38.68
2023-03-17T22:00:42.650Z,37.73
2023-03-17T22:03:10.733Z,37.89
2023-03-17T22:05:36.864Z,37.46
2023-03-17T22:08:02.962Z,37.71
2023-03-17T22:10:29.299Z,38.96
2023-03-17T22:12:55.577Z,38.40
2023-03-17T22:15:21.675Z,38.00
2023-03-17T22:17:47.772Z,37.59
2023-03-17T22:20:13.904Z,37.42
2023-03-17T22:22:40.005Z,37.37
2023-03-17T22:25:06.098Z,38.31
2023-03-17T22:27:32.212Z,38.28
2023-03-17T22:29:58.307Z,38.62
2023-03-17T22:32:24.433Z,38.52
2023-03-17T22:34:50.533Z,38.47
2023-03-17T22:37:16.614Z,38.59
2023-03-17T22:39:42.709Z,38.56
2023-03-17T22:42:08.815Z,38.52
2023-03-17T22:44:34.903Z,37.65
2023-03-17T22:47:00.977Z,38.45
2023-03-17T22:49:27.052Z,38.59
2023-03-17T22:51:53.133Z,38.24
2023-03-17T22:54:19.228Z,38.50
2023-03-17T22:56:45.341Z,38.28
2023-03-17T22:59:11.433Z,38.73
2023-03-17T23:01:37.590Z,38.50
2023-03-17T23:04:03.751Z,38.73
2023-03-17T23:06:29.908Z,38.03
2023-03-17T23:08:55.994Z,37.99
2023-03-17T23:11:22.101Z,37.91
2023-03-17T23:13:48.280Z,37.95
2023-03-17T23:16:14.358Z,37.60
2023-03-17T23:18:40.488Z,37.19
2023-03-17T23:21:06.596Z,37.21
2023-03-17T23:23:32.709Z,37.69
2023-03-17T23:25:58.806Z,36.85
2023-03-17T23:28:24.902Z,37.90
2023-03-17T23:30:51.038Z,39.08
2023-03-17T23:33:17.133Z,38.74
2023-03-17T23:35:43.254Z,38.74
2023-03-17T23:38:09.348Z,38.00
2023-03-17T23:40:35.455Z,37.80
2023-03-17T23:43:01.546Z,37.53
2023-03-17T23:45:27.632Z,37.57
2023-03-17T23:47:53.700Z,37.81
2023-03-17T23:50:19.811Z,37.12
2023-03-17T23:52:45.906Z,37.94
2023-03-17T23:55:11.997Z,38.16
2023-03-17T23:57:38.091Z,37.69
